Huvudsida
METAR-TAF:

METAR-TAF

Flygplatser :

Point Hope, Alaska, USA

latitud: 68-21N, longitud: 166-48W, höjd: 4 m

Aktuellt väderrapport

Denna rapport gjordes för 13 minuter sedan, klockan 18:56 UTC
Vind 14 kt från syd
Temperatur 2°C
Fuktighet 100%
Tryck 1023 hPa
Sikt: 14.5 km
Mulet på en höjd av 200 ft

METAR: PAPO 141856Z AUTO 17014KT 9SM OVC002 02/02 A3020 RMK AO2 SLP225 T00220017 FZRANO

Tid: 11:09 (19:09 UTC)


TAF: saknas

Aktuella väderrapporter och prognoser från 4000 flygplatser (METAR- och TAF-rapporter).

De tillgängliga stationerna syns som gula och röda prickar på kartan.

För musen över prickarna för att se namnen på stationerna.

Klicka sedan för att få väderrapporter och prognoser.

För att ändra kartan: Klicka på de gröna knapparna med ett svart kors på för att zooma in; den gröna knappen med ett streck på för att zooma ut; eller på de gröna pilarna för angränsande kartor.


METAR-TAF: